Time;durP1;ratioP1;P1;durP2;ratioP2;P2;SDS_P1;SDS_P2;PMS_P1;PMS_P2;Temp;Humidity;BMP_temperature;BMP_pressure;BME280_temperature;BME280_humidity;BME280_pressure;Samples;Min_cycle;Max_cycle;Signal;HPM_P1;HPM_P2
2022/07/04 04:01:03;;;;;;;6.80;1.97;;;19.00;96.30;;;;;;5752950;23;20495;-77
2022/07/04 04:06:13;;;;;;;7.97;2.70;;;18.30;96.30;;;;;;4998049;28;20183;-77
2022/07/04 04:08:38;;;;;;;4.37;2.47;;;17.80;96.30;;;;;;5011891;28;20407;-76
2022/07/04 04:11:04;;;;;;;5.00;2.03;;;17.60;96.30;;;;;;4995416;28;20225;-76
2022/07/04 04:13:29;;;;;;;5.90;2.27;;;17.50;96.30;;;;;;4992839;28;20216;-77
2022/07/04 04:15:55;;;;;;;4.23;2.30;;;17.70;96.30;;;;;;4976055;28;20185;-77
2022/07/04 04:18:20;;;;;;;7.20;2.10;;;18.00;96.30;;;;;;4993003;28;20206;-77
2022/07/04 04:20:46;;;;;;;4.23;2.40;;;18.60;96.30;;;;;;4992396;28;20200;-77
2022/07/04 04:23:11;;;;;;;6.20;2.60;;;19.10;96.30;;;;;;4992781;28;20178;-77
2022/07/04 04:25:37;;;;;;;4.33;2.17;;;19.50;96.30;;;;;;4992906;28;20208;-78
2022/07/04 04:28:02;;;;;;;3.23;2.17;;;20.40;96.30;;;;;;4992177;28;20264;-78
2022/07/04 04:30:28;;;;;;;9.70;2.30;;;21.30;96.30;;;;;;4992713;28;20178;-77
2022/07/04 04:32:53;;;;;;;3.13;2.17;;;22.20;96.30;;;;;;4992559;28;20177;-76
2022/07/04 04:35:19;;;;;;;4.70;2.27;;;22.90;96.10;;;;;;4975188;28;20243;-76
2022/07/04 04:37:44;;;;;;;5.60;2.03;;;23.50;94.10;;;;;;4991914;28;20181;-78
2022/07/04 04:40:11;;;;;;;3.97;2.20;;;23.10;96.00;;;;;;4992556;28;20185;-78
2022/07/04 04:42:37;;;;;;;3.97;2.30;;;23.60;94.20;;;;;;4992464;28;20254;-78
2022/07/04 04:45:04;;;;;;;2.30;1.80;;;23.80;93.00;;;;;;4992352;28;20416;-78
2022/07/04 04:47:29;;;;;;;5.27;2.50;;;24.50;92.10;;;;;;4991853;28;20840;-77
2022/07/04 04:49:55;;;;;;;4.77;2.60;;;25.30;89.10;;;;;;4992457;28;20455;-78
2022/07/04 04:52:20;;;;;;;2.90;2.47;;;25.60;86.80;;;;;;4992258;28;20197;-79
2022/07/04 04:54:46;;;;;;;6.20;3.00;;;25.40;86.60;;;;;;4984957;28;20410;-78
2022/07/04 04:57:11;;;;;;;3.17;2.10;;;24.50;88.50;;;;;;4972441;28;20200;-76
2022/07/04 04:59:37;;;;;;;3.00;2.57;;;23.90;91.70;;;;;;4972004;28;20305;-76
2022/07/04 05:02:03;;;;;;;2.20;2.00;;;22.70;95.80;;;;;;4954698;28;20209;-76
2022/07/04 05:04:29;;;;;;;6.77;2.80;;;22.80;95.70;;;;;;4955039;28;20650;-77
2022/07/04 05:06:55;;;;;;;5.50;2.50;;;23.10;95.90;;;;;;4972427;28;20515;-76
2022/07/04 05:09:21;;;;;;;3.67;2.67;;;22.90;96.30;;;;;;4977057;28;20214;-76
2022/07/04 05:11:47;;;;;;;4.03;2.40;;;23.60;95.20;;;;;;4991875;28;20862;-77
2022/07/04 05:14:13;;;;;;;6.03;3.13;;;24.40;91.50;;;;;;4991811;28;20204;-76
2022/07/04 05:16:39;;;;;;;5.97;2.33;;;25.10;88.80;;;;;;4974588;28;20417;-77
2022/07/04 05:19:05;;;;;;;4.50;2.13;;;25.10;88.80;;;;;;4995161;28;20408;-76
2022/07/04 05:21:30;;;;;;;12.37;3.90;;;25.20;89.20;;;;;;4995435;28;20196;-78
2022/07/04 05:23:56;;;;;;;5.93;2.63;;;26.10;86.90;;;;;;4995645;28;20362;-78
2022/07/04 05:26:22;;;;;;;4.30;2.43;;;26.20;85.90;;;;;;4995613;28;20177;-78
2022/07/04 05:28:48;;;;;;;6.70;2.90;;;26.60;84.10;;;;;;4995011;28;20184;-77
2022/07/04 05:31:13;;;;;;;4.80;2.50;;;27.00;84.20;;;;;;4995307;28;20436;-78
2022/07/04 05:33:39;;;;;;;4.80;2.53;;;27.60;81.70;;;;;;4977570;28;20251;-78
2022/07/04 05:36:04;;;;;;;6.93;2.73;;;27.60;81.50;;;;;;4995126;28;20173;-78
2022/07/04 05:38:30;;;;;;;2.90;2.07;;;27.80;82.70;;;;;;4977124;28;20184;-78
2022/07/04 05:40:56;;;;;;;3.10;2.10;;;28.50;80.10;;;;;;4977691;28;20240;-78
2022/07/04 05:43:21;;;;;;;4.97;2.30;;;28.10;79.50;;;;;;4977574;28;20172;-78
2022/07/04 05:45:48;;;;;;;4.73;2.23;;;26.10;84.60;;;;;;4995089;28;20181;-78
2022/07/04 05:48:13;;;;;;;6.00;2.10;;;25.30;87.00;;;;;;4994556;28;20618;-78
2022/07/04 05:50:39;;;;;;;5.93;2.07;;;26.10;85.30;;;;;;4992340;28;20433;-78
2022/07/04 05:53:04;;;;;;;8.10;2.60;;;26.90;84.20;;;;;;4974583;28;20642;-78
2022/07/04 05:55:30;;;;;;;4.80;1.90;;;27.60;83.10;;;;;;4958527;28;20292;-78
2022/07/04 05:57:55;;;;;;;5.10;2.20;;;28.20;80.90;;;;;;4958397;28;20200;-78
2022/07/04 06:00:21;;;;;;;3.70;2.10;;;28.60;80.80;;;;;;4958063;28;20173;-78
2022/07/04 06:02:47;;;;;;;6.57;2.30;;;29.50;79.00;;;;;;4975969;28;20608;-78
2022/07/04 06:05:12;;;;;;;6.30;2.53;;;30.10;74.90;;;;;;4958564;28;20182;-78
2022/07/04 06:07:38;;;;;;;2.90;2.30;;;29.80;76.80;;;;;;4975279;28;20519;-78
2022/07/04 06:10:05;;;;;;;3.13;2.10;;;29.00;77.70;;;;;;4986659;28;20177;-78
2022/07/04 06:12:30;;;;;;;6.57;2.27;;;27.80;81.20;;;;;;4977726;28;20208;-78
2022/07/04 06:14:56;;;;;;;5.82;2.35;;;28.80;80.20;;;;;;4995029;28;20204;-78
2022/07/04 06:17:21;;;;;;;4.03;2.10;;;29.60;76.60;;;;;;4995089;28;20661;-78
2022/07/04 06:19:47;;;;;;;3.15;2.38;;;29.60;77.40;;;;;;4994577;28;20179;-78
2022/07/04 06:22:12;;;;;;;4.30;2.10;;;30.30;76.00;;;;;;4994934;28;20570;-78
2022/07/04 06:24:38;;;;;;;3.42;2.17;;;30.20;76.50;;;;;;4995053;28;20663;-78
2022/07/04 06:27:04;;;;;;;3.08;1.95;;;30.20;75.80;;;;;;4994988;28;20188;-78
2022/07/04 06:29:29;;;;;;;4.15;2.10;;;30.10;77.00;;;;;;4992995;28;20637;-78
2022/07/04 06:31:55;;;;;;;4.95;1.70;;;30.30;76.20;;;;;;4994865;28;20686;-78
2022/07/04 06:37:04;;;;;;;6.80;2.00;;;30.60;73.60;;;;;;4994765;28;20231;-78
2022/07/04 06:39:30;;;;;;;5.63;1.73;;;30.80;74.40;;;;;;4994109;28;20256;-78
2022/07/04 06:41:55;;;;;;;5.65;1.50;;;31.20;73.80;;;;;;4994581;28;20209;-78
2022/07/04 06:44:20;;;;;;;4.40;1.52;;;31.80;73.20;;;;;;4977071;28;20188;-78
2022/07/04 06:46:46;;;;;;;2.22;1.63;;;31.60;70.80;;;;;;4994578;28;20188;-78
2022/07/04 06:49:12;;;;;;;3.57;1.90;;;31.50;72.50;;;;;;4993936;28;20660;-78
2022/07/04 06:51:37;;;;;;;4.13;1.73;;;31.00;73.90;;;;;;4994479;28;20197;-78
2022/07/04 06:54:03;;;;;;;2.70;1.63;;;31.10;72.00;;;;;;4976812;28;20203;-78
2022/07/04 06:56:29;;;;;;;3.13;1.80;;;30.60;74.80;;;;;;4994454;28;20539;-78
2022/07/04 06:58:54;;;;;;;4.90;1.43;;;30.80;75.70;;;;;;4993742;28;20224;-78
2022/07/04 07:01:19;;;;;;;3.80;1.80;;;31.30;73.00;;;;;;4976606;28;20255;-78
2022/07/04 07:03:45;;;;;;;2.70;1.83;;;31.20;72.40;;;;;;4994275;28;20173;-78
2022/07/04 07:06:10;;;;;;;1.90;1.50;;;31.20;71.10;;;;;;4994194;28;20672;-78
2022/07/04 07:08:36;;;;;;;4.30;1.93;;;30.60;72.80;;;;;;4993517;28;20219;-78
2022/07/04 07:11:12;;;;;;;3.73;1.90;;;30.20;73.80;;;;;;4994020;28;20205;-78
2022/07/04 07:13:41;;;;;;;2.73;1.70;;;29.50;73.20;;;;;;4994011;28;20660;-78
2022/07/04 07:16:07;;;;;;;6.67;1.80;;;28.80;76.40;;;;;;4994115;28;20412;-78
2022/07/04 07:18:32;;;;;;;2.87;1.60;;;29.30;74.80;;;;;;4993255;28;20520;-78
2022/07/04 07:20:58;;;;;;;1.70;1.53;;;28.50;75.20;;;;;;4993925;28;20323;-78
2022/07/04 07:23:23;;;;;;;5.80;1.93;;;29.30;76.10;;;;;;4993894;28;20669;-78
2022/07/04 07:25:49;;;;;;;2.53;1.90;;;29.50;74.50;;;;;;4994508;28;20204;-78
2022/07/04 07:28:14;;;;;;;2.70;1.67;;;29.70;73.90;;;;;;4993266;28;20627;-78
2022/07/04 07:30:40;;;;;;;3.83;1.67;;;30.00;71.50;;;;;;4976205;28;20204;-78
2022/07/04 07:33:05;;;;;;;1.67;1.40;;;29.70;73.00;;;;;;4993638;28;20183;-78
2022/07/04 07:35:31;;;;;;;2.83;1.77;;;29.40;72.80;;;;;;4993794;28;20201;-78
2022/07/04 07:37:56;;;;;;;2.83;1.43;;;30.30;72.80;;;;;;4993135;28;20181;-78
2022/07/04 07:40:22;;;;;;;3.47;1.80;;;30.80;72.20;;;;;;4993754;28;20653;-78
2022/07/04 07:42:48;;;;;;;6.30;2.13;;;30.80;72.00;;;;;;4993592;28;20169;-78
2022/07/04 07:45:13;;;;;;;3.10;1.63;;;30.80;71.40;;;;;;4993643;28;20173;-78
2022/07/04 07:47:39;;;;;;;2.60;1.60;;;29.80;74.00;;;;;;4975383;28;20259;-77
2022/07/04 07:50:05;;;;;;;3.73;1.50;;;30.10;72.90;;;;;;4993458;28;20181;-78
2022/07/04 07:52:31;;;;;;;3.23;1.83;;;28.60;74.80;;;;;;4993143;28;20236;-78
2022/07/04 07:54:56;;;;;;;2.57;1.63;;;27.60;78.40;;;;;;4993236;28;20495;-78
2022/07/04 07:57:21;;;;;;;3.70;1.60;;;27.80;75.80;;;;;;4975090;28;20236;-78
2022/07/04 07:59:47;;;;;;;5.07;1.73;;;27.40;77.80;;;;;;4992748;28;20177;-78
2022/07/04 08:02:12;;;;;;;2.97;1.50;;;28.60;77.80;;;;;;4993729;28;20212;-78
2022/07/04 08:04:40;;;;;;;2.93;1.60;;;29.20;77.00;;;;;;4993194;28;20180;-78
2022/07/04 08:07:09;;;;;;;7.30;2.10;;;29.10;76.00;;;;;;4992760;28;20172;-78
2022/07/04 08:09:35;;;;;;;3.13;1.87;;;29.60;79.20;;;;;;4992009;28;20451;-78
2022/07/04 08:12:03;;;;;;;2.90;1.80;;;30.10;74.90;;;;;;4992799;28;20916;-78
2022/07/04 08:14:29;;;;;;;4.63;1.60;;;30.20;74.60;;;;;;4993260;28;20970;-78
2022/07/04 08:16:55;;;;;;;2.43;1.90;;;30.10;75.90;;;;;;4994673;28;20416;-78
2022/07/04 08:19:21;;;;;;;4.60;1.50;;;29.70;73.90;;;;;;4975355;28;20271;-78
2022/07/04 08:21:46;;;;;;;5.93;1.60;;;29.20;75.60;;;;;;4975626;28;20526;-78
2022/07/04 08:24:14;;;;;;;8.53;1.80;;;27.80;76.30;;;;;;4992813;28;20189;-77
2022/07/04 08:26:39;;;;;;;4.90;1.67;;;26.10;80.30;;;;;;4992909;28;20173;-77
2022/07/04 08:29:05;;;;;;;5.97;2.00;;;26.20;80.00;;;;;;4992156;28;20412;-78
2022/07/04 08:31:30;;;;;;;2.57;1.97;;;27.50;79.40;;;;;;4992394;28;20203;-78
2022/07/04 08:33:56;;;;;;;2.53;1.50;;;28.80;78.80;;;;;;4992560;28;20211;-78
2022/07/04 08:36:21;;;;;;;3.97;1.73;;;28.80;75.70;;;;;;4992656;28;20628;-77
2022/07/04 08:38:47;;;;;;;2.60;1.60;;;27.90;76.40;;;;;;4974480;28;20165;-77
2022/07/04 08:41:15;;;;;;;6.73;1.70;;;26.90;78.70;;;;;;4992547;28;20243;-77
2022/07/04 08:43:42;;;;;;;2.37;1.90;;;26.70;79.70;;;;;;4992588;28;20168;-77
2022/07/04 08:46:09;;;;;;;6.40;1.70;;;27.10;79.90;;;;;;4992456;28;20446;-77
2022/07/04 08:48:37;;;;;;;5.00;1.60;;;26.90;83.30;;;;;;4991835;28;20419;-77
2022/07/04 08:51:14;;;;;;;2.50;1.73;;;26.80;83.10;;;;;;4974642;28;20444;-77
2022/07/04 08:53:50;;;;;;;3.13;1.90;;;26.10;80.90;;;;;;4974737;28;20455;-77
2022/07/04 08:59:03;;;;;;;2.57;1.70;;;28.10;80.30;;;;;;4991931;28;20403;-77
2022/07/04 09:01:30;;;;;;;2.83;1.70;;;28.20;78.60;;;;;;4992137;28;20448;-78
2022/07/04 09:03:56;;;;;;;5.37;1.90;;;28.00;79.40;;;;;;4992272;28;20430;-77
2022/07/04 09:06:23;;;;;;;3.60;1.80;;;27.90;78.30;;;;;;4992481;28;20866;-77
2022/07/04 09:08:49;;;;;;;1.60;1.50;;;28.00;79.10;;;;;;4991867;28;20196;-77
2022/07/04 09:11:15;;;;;;;2.43;1.43;;;28.10;82.50;;;;;;4975189;28;20936;-78
2022/07/04 09:13:40;;;;;;;2.60;1.97;;;29.20;79.10;;;;;;4992331;28;20243;-78
2022/07/04 09:16:06;;;;;;;3.07;1.70;;;30.10;79.90;;;;;;4974776;28;20524;-78
2022/07/04 09:18:33;;;;;;;2.70;1.80;;;30.20;76.70;;;;;;4991685;28;20591;-77
2022/07/04 09:21:02;;;;;;;2.93;1.63;;;29.40;76.80;;;;;;4992369;28;20252;-77
2022/07/04 09:23:29;;;;;;;4.13;1.60;;;29.20;75.70;;;;;;4992160;28;20479;-77
2022/07/04 09:26:17;;;;;;;4.10;1.70;;;29.10;75.60;;;;;;4974687;28;20420;-77
2022/07/04 09:28:57;;;;;;;2.97;1.40;;;29.40;79.30;;;;;;4991510;28;20431;-78
2022/07/04 09:31:28;;;;;;;3.87;1.80;;;30.10;78.20;;;;;;4991829;28;20978;-77
2022/07/04 09:34:07;;;;;;;1.97;1.77;;;29.10;75.80;;;;;;4992163;28;20464;-77
2022/07/04 09:36:38;;;;;;;2.03;1.40;;;27.60;77.20;;;;;;4992427;28;20955;-77
2022/07/04 09:39:21;;;;;;;3.93;1.60;;;27.50;82.10;;;;;;4991398;28;20459;-77
2022/07/04 09:41:57;;;;;;;3.23;1.53;;;28.00;76.70;;;;;;4992033;28;20467;-77
2022/07/04 09:44:29;;;;;;;4.60;1.40;;;28.60;75.80;;;;;;4991997;28;20435;-78
2022/07/04 09:46:56;;;;;;;6.13;2.20;;;28.90;76.00;;;;;;4991983;28;20483;-77
2022/07/04 09:49:21;;;;;;;2.53;1.40;;;28.60;79.50;;;;;;4991526;28;20466;-77
2022/07/04 09:51:50;;;;;;;6.60;1.30;;;28.10;78.20;;;;;;4991948;28;20435;-77
2022/07/04 09:54:31;;;;;;;3.13;1.50;;;28.50;77.20;;;;;;4992033;28;20566;-77
2022/07/04 09:57:02;;;;;;;3.17;1.50;;;27.40;78.00;;;;;;4991900;28;20415;-77
2022/07/04 09:59:29;;;;;;;1.70;1.20;;;27.00;80.20;;;;;;4991242;28;20463;-77
2022/07/04 10:02:07;;;;;;;1.87;1.60;;;27.80;79.10;;;;;;4991686;28;20957;-77
2022/07/04 10:04:44;;;;;;;3.00;1.30;;;27.60;79.70;;;;;;4995035;28;20416;-77
2022/07/04 10:07:09;;;;;;;9.20;1.63;;;28.40;80.40;;;;;;4995246;28;20935;-77
2022/07/04 10:09:35;;;;;;;1.80;1.70;;;28.70;79.80;;;;;;4994442;28;20443;-78
2022/07/04 10:12:01;;;;;;;1.83;1.63;;;29.00;78.00;;;;;;4995180;28;20203;-77
2022/07/04 10:14:27;;;;;;;3.43;1.47;;;28.80;75.60;;;;;;4977483;28;20288;-78
2022/07/04 10:16:53;;;;;;;2.80;2.00;;;28.10;78.80;;;;;;4995567;28;20440;-77
2022/07/04 10:19:19;;;;;;;3.30;1.60;;;28.50;79.50;;;;;;4995418;28;20180;-77
2022/07/04 10:21:45;;;;;;;11.97;1.40;;;29.00;76.80;;;;;;4995164;28;20197;-77
2022/07/04 10:24:11;;;;;;;3.10;1.47;;;29.60;76.40;;;;;;4995061;28;20419;-77
2022/07/04 10:26:36;;;;;;;3.03;1.70;;;29.80;76.90;;;;;;4995042;28;20499;-78
2022/07/04 10:29:02;;;;;;;2.30;1.70;;;30.10;78.80;;;;;;4994363;28;20267;-77
2022/07/04 10:31:29;;;;;;;2.80;1.80;;;30.30;77.10;;;;;;4994850;28;20726;-76
2022/07/04 10:33:57;;;;;;;3.90;1.63;;;30.30;75.80;;;;;;4977532;28;20577;-78
2022/07/04 10:36:28;;;;;;;1.80;1.30;;;30.90;78.20;;;;;;4994882;28;20409;-78
2022/07/04 10:38:58;;;;;;;6.10;1.73;;;31.10;76.00;;;;;;4994053;28;20401;-78
2022/07/04 10:41:25;;;;;;;6.40;1.50;;;31.10;75.80;;;;;;4994563;28;20523;-78
2022/07/04 10:44:00;;;;;;;2.27;1.60;;;31.00;76.60;;;;;;4994606;28;20908;-78
2022/07/04 10:46:28;;;;;;;3.40;1.33;;;30.30;72.60;;;;;;4977131;28;20517;-78
2022/07/04 10:48:56;;;;;;;2.10;1.50;;;30.70;79.10;;;;;;4993915;28;20412;-78
2022/07/04 10:51:48;;;;;;;10.30;1.70;;;31.00;75.20;;;;;;4994448;28;20792;-78
2022/07/04 10:54:34;;;;;;;1.90;1.50;;;30.90;71.40;;;;;;4970547;28;20459;-78
2022/07/04 10:57:13;;;;;;;4.07;1.70;;;30.10;72.70;;;;;;4994427;28;20439;-78
2022/07/04 10:59:40;;;;;;;3.47;1.77;;;29.80;77.30;;;;;;4994003;28;20408;-77
2022/07/04 11:02:06;;;;;;;2.60;1.40;;;30.50;78.20;;;;;;4994754;28;20463;-77
2022/07/04 11:05:10;;;;;;;4.37;1.67;;;31.20;70.40;;;;;;4994650;28;20420;-78
2022/07/04 11:07:36;;;;;;;2.43;1.40;;;;;;;;;;4975935;28;20808;-78
2022/07/04 11:10:11;;;;;;;3.77;1.73;;;29.70;74.50;;;;;;4994160;28;20436;-78
2022/07/04 11:12:55;;;;;;;3.80;1.50;;;28.30;75.20;;;;;;4993932;28;20713;-77
2022/07/04 11:15:29;;;;;;;15.07;2.00;;;28.60;78.50;;;;;;4993386;28;20543;-78
2022/07/04 11:18:02;;;;;;;5.47;1.50;;;29.30;74.10;;;;;;4993317;28;20410;-77
2022/07/04 11:20:31;;;;;;;4.50;2.13;;;27.60;76.10;;;;;;4976840;28;20424;-78
2022/07/04 11:23:11;;;;;;;4.33;1.90;;;27.70;82.00;;;;;;4976364;28;20431;-77
2022/07/04 11:25:41;;;;;;;3.77;1.60;;;27.50;77.10;;;;;;4993798;28;20416;-77
2022/07/04 11:28:26;;;;;;;4.07;1.60;;;28.20;77.00;;;;;;4993170;28;20787;-77
2022/07/04 11:30:54;;;;;;;3.07;1.33;;;28.80;76.10;;;;;;4993792;28;20438;-77
2022/07/04 11:33:22;;;;;;;2.37;1.50;;;28.80;81.30;;;;;;4976269;28;20471;-78
2022/07/04 11:36:09;;;;;;;2.63;1.43;;;29.10;75.30;;;;;;4993549;28;20506;-77
2022/07/04 11:38:53;;;;;;;4.00;1.70;;;30.30;78.00;;;;;;4975450;28;20504;-77
2022/07/04 11:47:18;;;;;;;3.20;1.20;;;30.00;74.40;;;;;;4993523;28;20411;-77
2022/07/04 11:49:46;;;;;;;2.53;1.30;;;29.80;77.30;;;;;;4992936;28;20408;-77
2022/07/04 11:52:12;;;;;;;3.53;1.50;;;29.10;76.10;;;;;;4993384;28;20432;-77
2022/07/04 11:54:39;;;;;;;3.20;1.60;;;28.90;74.70;;;;;;4993365;28;20452;-77
2022/07/04 11:57:09;;;;;;;4.40;1.47;;;29.30;74.90;;;;;;4975888;28;20455;-77
2022/07/04 11:59:35;;;;;;;6.40;1.50;;;29.30;74.90;;;;;;4992713;28;20927;-77
2022/07/04 12:02:13;;;;;;;2.67;1.30;;;29.40;74.50;;;;;;4993334;28;20460;-77
2022/07/04 12:04:41;;;;;;;6.10;1.17;;;29.10;75.40;;;;;;4994688;28;20637;-77
2022/07/04 12:07:27;;;;;;;1.77;1.20;;;28.60;75.30;;;;;;4993595;28;20438;-77
2022/07/04 12:09:54;;;;;;;5.83;1.63;;;27.80;76.20;;;;;;4993384;28;20420;-77
2022/07/04 12:12:21;;;;;;;4.17;1.70;;;27.60;77.90;;;;;;4993304;28;20439;-77
2022/07/04 12:15:02;;;;;;;5.33;1.60;;;27.40;77.60;;;;;;4993262;28;20547;-77
2022/07/04 12:17:31;;;;;;;2.73;1.50;;;26.80;78.20;;;;;;4993317;28;20411;-78
2022/07/04 12:19:58;;;;;;;3.47;1.40;;;26.60;81.20;;;;;;4993539;28;20408;-77
2022/07/04 12:22:36;;;;;;;3.63;1.50;;;26.30;80.70;;;;;;4993426;28;20424;-77
2022/07/04 12:25:04;;;;;;;6.10;1.57;;;25.80;82.60;;;;;;4992929;28;20408;-77
2022/07/04 12:27:29;;;;;;;4.00;1.83;;;25.70;83.20;;;;;;4991324;28;20824;-77
2022/07/04 12:29:57;;;;;;;1.40;1.30;;;26.20;85.60;;;;;;4993005;28;20412;-77
2022/07/04 12:32:23;;;;;;;2.77;1.33;;;27.10;82.30;;;;;;4992781;28;20259;-77
2022/07/04 12:34:49;;;;;;;3.37;1.53;;;26.50;80.50;;;;;;4992783;28;20456;-77
2022/07/04 12:37:16;;;;;;;4.70;1.30;;;26.20;82.10;;;;;;4992635;28;20249;-77
2022/07/04 12:39:46;;;;;;;1.40;1.30;;;26.10;83.50;;;;;;4992155;28;20467;-77
2022/07/04 12:42:17;;;;;;;1.63;1.27;;;26.00;84.70;;;;;;4975117;28;20444;-77
2022/07/04 12:44:45;;;;;;;1.47;1.10;;;26.60;81.90;;;;;;4992510;28;20447;-77
2022/07/04 12:47:12;;;;;;;5.27;1.30;;;27.10;82.50;;;;;;4992532;28;20405;-77
2022/07/04 12:49:45;;;;;;;10.03;1.87;;;27.40;81.30;;;;;;4991951;28;20431;-77
2022/07/04 12:52:16;;;;;;;1.67;1.30;;;27.00;80.20;;;;;;4974953;28;20532;-77
2022/07/04 12:54:45;;;;;;;4.50;1.50;;;27.10;82.10;;;;;;4992564;28;20543;-77
2022/07/04 12:57:16;;;;;;;4.67;1.50;;;27.10;80.90;;;;;;4974996;28;20412;-77
2022/07/04 12:59:42;;;;;;;6.20;2.10;;;27.70;79.60;;;;;;4991961;28;20936;-77
2022/07/04 13:02:09;;;;;;;3.93;1.40;;;27.70;79.50;;;;;;4992251;28;20522;-77
2022/07/04 13:04:35;;;;;;;2.27;1.20;;;27.70;80.30;;;;;;4992805;28;20814;-77
2022/07/04 13:07:14;;;;;;;2.50;1.20;;;27.50;77.80;;;;;;4974634;28;20416;-77
2022/07/04 13:09:41;;;;;;;2.33;1.30;;;27.50;79.20;;;;;;4991403;28;20412;-77
2022/07/04 13:12:25;;;;;;;2.17;1.17;;;27.70;78.20;;;;;;4992525;28;20519;-77
2022/07/04 13:14:55;;;;;;;3.10;1.50;;;27.10;79.50;;;;;;4992045;28;20814;-77
2022/07/04 13:17:21;;;;;;;5.47;1.80;;;27.60;80.00;;;;;;4992055;28;20408;-77
2022/07/04 13:19:47;;;;;;;2.30;1.30;;;26.90;78.80;;;;;;4974207;28;20427;-78
2022/07/04 13:22:13;;;;;;;6.00;1.20;;;27.40;79.70;;;;;;4992293;28;20439;-77
2022/07/04 13:24:38;;;;;;;10.80;1.20;;;28.10;79.40;;;;;;4992140;28;20412;-77
2022/07/04 13:27:04;;;;;;;3.43;1.30;;;28.00;77.80;;;;;;4992217;28;20260;-77
2022/07/04 13:29:29;;;;;;;4.80;1.40;;;27.60;80.30;;;;;;4991611;28;20196;-77
2022/07/04 13:31:55;;;;;;;4.83;1.57;;;27.50;78.60;;;;;;4991891;28;20205;-77
2022/07/04 13:34:20;;;;;;;3.90;1.57;;;27.80;79.10;;;;;;4991840;28;20204;-77
2022/07/04 13:36:46;;;;;;;4.37;1.67;;;28.50;79.40;;;;;;4991944;28;20708;-77
2022/07/04 13:39:12;;;;;;;2.90;1.10;;;29.20;79.00;;;;;;4976776;28;20173;-78
2022/07/04 13:41:38;;;;;;;3.33;1.30;;;28.50;76.40;;;;;;4995602;28;20224;-77
2022/07/04 13:44:05;;;;;;;3.27;1.27;;;27.90;76.40;;;;;;4995756;28;20416;-77
2022/07/04 13:46:34;;;;;;;2.40;1.50;;;27.50;78.00;;;;;;4995760;28;20175;-77
2022/07/04 13:49:01;;;;;;;8.20;1.40;;;28.20;81.40;;;;;;4995031;28;20543;-77
2022/07/04 13:51:26;;;;;;;8.13;1.53;;;28.40;73.90;;;;;;4977778;28;20440;-77
2022/07/04 13:53:52;;;;;;;3.30;1.40;;;29.00;78.50;;;;;;4995233;28;20464;-77
2022/07/04 13:56:18;;;;;;;3.60;1.23;;;29.10;76.70;;;;;;4995452;28;20182;-77
2022/07/04 13:58:47;;;;;;;4.13;1.27;;;29.10;74.40;;;;;;4994882;28;20173;-77
2022/07/04 14:01:14;;;;;;;1.83;1.10;;;28.80;72.90;;;;;;4995358;28;20235;-77
2022/07/04 14:03:40;;;;;;;2.77;1.60;;;28.50;75.50;;;;;;4977811;28;20416;-77
2022/07/04 14:06:06;;;;;;;2.03;1.20;;;28.40;74.60;;;;;;4995289;28;20415;-77
2022/07/04 14:08:32;;;;;;;3.87;1.53;;;28.60;76.40;;;;;;4994575;28;20177;-77
2022/07/04 14:10:57;;;;;;;3.30;1.37;;;28.80;75.60;;;;;;4995163;28;20285;-78
2022/07/04 14:13:23;;;;;;;4.27;1.50;;;29.00;75.60;;;;;;4995258;28;20180;-77
2022/07/04 14:15:48;;;;;;;3.70;1.20;;;28.80;71.20;;;;;;4995041;28;20328;-78
2022/07/04 14:18:14;;;;;;;2.30;1.20;;;28.20;75.00;;;;;;4994622;28;20529;-77
2022/07/04 14:20:40;;;;;;;3.20;2.20;;;27.70;76.40;;;;;;4977341;28;20196;-77
2022/07/04 14:23:06;;;;;;;4.77;1.20;;;27.70;77.60;;;;;;4994816;28;20161;-78
2022/07/04 14:25:32;;;;;;;4.30;1.37;;;27.30;76.90;;;;;;4994918;28;20761;-77
2022/07/04 14:27:57;;;;;;;2.93;1.53;;;26.60;78.30;;;;;;4994400;28;20680;-77
2022/07/04 14:30:22;;;;;;;1.20;1.00;;;25.90;79.40;;;;;;4994810;28;20676;-77
2022/07/04 14:32:48;;;;;;;3.93;1.27;;;25.70;80.30;;;;;;4994640;28;20184;-77
2022/07/04 14:35:14;;;;;;;2.70;1.37;;;26.10;81.00;;;;;;4994694;28;20209;-77
2022/07/04 14:37:39;;;;;;;3.90;1.10;;;26.90;80.10;;;;;;4993982;28;20169;-77
2022/07/04 14:40:05;;;;;;;2.80;1.37;;;27.30;77.70;;;;;;4977210;28;20259;-77
2022/07/04 14:42:31;;;;;;;2.13;1.40;;;27.60;77.90;;;;;;4994542;28;20189;-77
2022/07/04 14:44:56;;;;;;;2.23;1.13;;;27.50;76.60;;;;;;4977207;28;20428;-77
2022/07/04 14:47:22;;;;;;;1.97;1.13;;;26.90;78.40;;;;;;4976982;28;20231;-77
2022/07/04 14:49:47;;;;;;;11.73;1.80;;;26.70;77.50;;;;;;4975518;28;20180;-77
2022/07/04 14:52:13;;;;;;;2.90;1.30;;;26.50;77.60;;;;;;4994333;28;20268;-77
2022/07/04 14:54:38;;;;;;;8.63;1.53;;;26.30;80.50;;;;;;4994434;28;20833;-77
2022/07/04 14:57:04;;;;;;;4.40;1.60;;;27.00;76.70;;;;;;4994397;28;20173;-77
2022/07/04 14:59:31;;;;;;;3.00;1.20;;;27.10;75.00;;;;;;4993765;28;20513;-77
2022/07/04 15:01:56;;;;;;;4.40;1.50;;;26.90;78.20;;;;;;4994067;28;20216;-77
2022/07/04 15:04:22;;;;;;;7.83;1.50;;;27.20;78.30;;;;;;4976790;28;20420;-77
2022/07/04 15:06:47;;;;;;;3.17;1.00;;;27.50;76.50;;;;;;4994170;28;20649;-77
2022/07/04 15:09:13;;;;;;;3.23;1.13;;;27.40;76.00;;;;;;4976019;28;20265;-77
2022/07/04 15:11:38;;;;;;;3.73;1.10;;;27.00;75.90;;;;;;4994055;28;20673;-77
2022/07/04 15:14:04;;;;;;;1.83;1.13;;;27.10;75.20;;;;;;4994123;28;20557;-77
2022/07/04 15:16:29;;;;;;;1.40;1.07;;;27.20;76.60;;;;;;4994074;28;20192;-77
2022/07/04 15:18:55;;;;;;;1.90;1.63;;;27.10;76.10;;;;;;4993557;28;20189;-77
2022/07/04 15:24:11;;;;;;;4.07;1.33;;;27.20;75.80;;;;;;4993920;28;20703;-77
2022/07/04 15:26:38;;;;;;;2.33;1.20;;;27.00;73.90;;;;;;4993872;28;20408;-77
2022/07/04 15:29:03;;;;;;;1.80;1.33;;;26.80;75.70;;;;;;4992931;28;20504;-78
2022/07/04 15:31:29;;;;;;;1.67;1.10;;;27.00;74.60;;;;;;4993560;28;20441;-77
2022/07/04 15:33:54;;;;;;;6.50;1.10;;;26.70;75.30;;;;;;4965809;28;20297;-77
2022/07/04 15:36:21;;;;;;;3.63;1.00;;;26.40;75.60;;;;;;4954909;29;20270;-77
2022/07/04 15:38:46;;;;;;;2.13;1.10;;;26.00;77.70;;;;;;4954308;29;20175;-77
2022/07/04 15:41:15;;;;;;;5.10;1.13;;;26.40;78.30;;;;;;4988994;28;20804;-77
2022/07/04 15:43:41;;;;;;;6.63;1.30;;;26.60;75.40;;;;;;4974938;28;20169;-77
2022/07/04 15:46:07;;;;;;;5.07;1.17;;;26.60;75.60;;;;;;4990272;28;20435;-77
2022/07/04 15:48:32;;;;;;;2.67;1.10;;;26.70;73.60;;;;;;4992848;28;20499;-77
2022/07/04 15:51:01;;;;;;;1.77;1.10;;;26.70;73.20;;;;;;4990764;28;20200;-77
2022/07/04 15:53:26;;;;;;;3.43;1.13;;;26.80;73.40;;;;;;4980738;28;20184;-78
2022/07/04 15:55:52;;;;;;;2.00;1.00;;;27.10;72.70;;;;;;4975993;28;20458;-77
2022/07/04 15:58:17;;;;;;;11.03;1.43;;;27.20;76.20;;;;;;4966874;28;20177;-77
2022/07/04 16:00:43;;;;;;;1.80;1.00;;;27.60;74.20;;;;;;4968158;28;20221;-77
2022/07/04 16:03:10;;;;;;;5.50;1.07;;;27.70;75.40;;;;;;4962307;28;20229;-77
2022/07/04 16:05:36;;;;;;;2.73;1.03;;;27.50;74.00;;;;;;4968578;28;20493;-78
2022/07/04 16:08:01;;;;;;;1.60;1.00;;;27.60;76.40;;;;;;4973040;28;20508;-77
2022/07/04 16:10:27;;;;;;;2.83;1.37;;;27.40;76.10;;;;;;4971119;28;20260;-78
2022/07/04 16:12:53;;;;;;;2.77;0.90;;;27.20;72.80;;;;;;4964061;28;20248;-77
2022/07/04 16:15:19;;;;;;;8.97;1.33;;;26.40;73.50;;;;;;4957717;28;20457;-77
2022/07/04 16:17:44;;;;;;;1.90;1.20;;;25.40;75.80;;;;;;4941835;28;20215;-77
2022/07/04 16:20:11;;;;;;;10.70;1.53;;;25.00;76.90;;;;;;4966510;28;20236;-77
2022/07/04 16:22:37;;;;;;;4.97;1.30;;;24.50;78.80;;;;;;4962197;28;20261;-77
2022/07/04 16:25:03;;;;;;;3.23;1.17;;;24.30;79.00;;;;;;4943054;28;20976;-77
2022/07/04 16:27:29;;;;;;;2.47;1.33;;;24.30;79.80;;;;;;4953431;28;20206;-79
2022/07/04 16:29:54;;;;;;;2.37;1.10;;;24.30;80.60;;;;;;4958451;28;20465;-77
2022/07/04 16:32:20;;;;;;;7.97;1.30;;;24.40;81.80;;;;;;4969975;28;20689;-77
2022/07/04 16:34:46;;;;;;;2.33;1.10;;;24.40;79.80;;;;;;4969854;28;20249;-77
2022/07/04 16:37:11;;;;;;;3.40;1.20;;;24.30;80.30;;;;;;4973114;28;20646;-77
2022/07/04 16:39:37;;;;;;;3.43;1.63;;;24.40;80.30;;;;;;4977054;28;20177;-77
2022/07/04 16:42:03;;;;;;;1.87;1.00;;;24.40;79.70;;;;;;4989377;28;20190;-78
2022/07/04 16:44:28;;;;;;;4.80;1.37;;;24.50;79.90;;;;;;4971041;28;20261;-77
2022/07/04 16:46:54;;;;;;;8.17;1.30;;;24.50;79.30;;;;;;4961722;28;20198;-77
2022/07/04 16:49:19;;;;;;;2.17;1.20;;;24.50;79.70;;;;;;4957434;28;20238;-77
2022/07/04 16:51:45;;;;;;;2.30;1.50;;;24.50;79.90;;;;;;4954543;28;20202;-76
2022/07/04 16:54:11;;;;;;;1.43;0.90;;;24.30;79.90;;;;;;4958730;28;20198;-76
2022/07/04 16:56:37;;;;;;;6.60;1.40;;;24.40;80.50;;;;;;4960365;28;20425;-76
2022/07/04 16:59:02;;;;;;;10.30;1.27;;;24.60;79.20;;;;;;4953015;29;20410;-76
2022/07/04 17:01:28;;;;;;;2.70;1.20;;;24.50;79.70;;;;;;4953350;29;20207;-76
2022/07/04 17:03:54;;;;;;;1.30;1.07;;;24.50;79.70;;;;;;4957148;28;20926;-77
2022/07/04 17:06:20;;;;;;;3.83;1.30;;;24.40;78.80;;;;;;4955528;28;20178;-77